Terminal Aerodrome Forecast
Issued by NWS

Home | Current Version | Previous Version | Text Only | Print | Product List | Glossary On
Versions: 1 2 3 4 5 6 7 8 9 10 11 12 13 14 15 16 17 18 19 20 21 22 23 24 25 26 27 28 29 30 31 32 33 34 35
000
FTUS42 KCAE 020600 CCA
TAFCUB
TAF COR
KCUB 020623Z 0206/0306 VRB03KT 1SM BR OVC003
      TEMPO 0206/0208 1/2SM FG OVC001
     FM020800 VRB03KT 1/2SM FG OVC001
     FM021500 27005KT 4SM BR OVC005
     FM021700 29005KT P6SM OVC015
     FM022100 VRB05KT P6SM BKN025=

USA.gov is the U.S. government's official web portal to all federal, state and local government web resources and services.